Time;durP1;ratioP1;P1;durP2;ratioP2;P2;SDS_P1;SDS_P2;PMS_P1;PMS_P2;Temp;Humidity;BMP_temperature;BMP_pressure;BME280_temperature;BME280_humidity;BME280_pressure;Samples;Min_cycle;Max_cycle;Signal;HPM_P1;HPM_P2
2023/03/17 00:01:18;;;;;;;12.77;5.85;;;4.70;52.00;;;;;;5054832;28;20036;-65
2023/03/17 00:03:46;;;;;;;14.20;5.45;;;4.70;52.20;;;;;;5055077;28;20067;-65
2023/03/17 00:06:17;;;;;;;12.75;5.75;;;4.70;52.30;;;;;;5054832;28;20083;-65
2023/03/17 00:08:45;;;;;;;15.20;5.65;;;4.70;52.40;;;;;;5055210;28;20029;-66
2023/03/17 00:11:16;;;;;;;12.63;4.88;;;4.60;52.50;;;;;;5054743;28;20041;-66
2023/03/17 00:13:43;;;;;;;9.50;5.05;;;4.60;52.70;;;;;;5055037;28;20040;-65
2023/03/17 00:16:21;;;;;;;7.60;4.32;;;4.60;52.80;;;;;;5054219;28;20033;-66
2023/03/17 00:18:49;;;;;;;8.40;5.07;;;4.50;52.80;;;;;;5054776;28;20465;-66
2023/03/17 00:21:22;;;;;;;10.38;4.38;;;4.40;53.30;;;;;;5054585;28;20208;-65
2023/03/17 00:23:50;;;;;;;9.82;4.65;;;4.30;53.50;;;;;;5054911;28;20363;-65
2023/03/17 00:26:16;;;;;;;7.60;4.32;;;4.30;53.80;;;;;;5054451;28;20658;-66
2023/03/17 00:28:43;;;;;;;9.25;4.18;;;4.30;53.80;;;;;;5054591;28;20029;-66
2023/03/17 00:31:15;;;;;;;7.85;4.38;;;4.30;53.70;;;;;;5054121;28;20116;-66
2023/03/17 00:33:44;;;;;;;9.13;4.38;;;4.20;54.00;;;;;;5054511;28;20363;-66
2023/03/17 00:36:22;;;;;;;11.50;4.53;;;4.10;54.30;;;;;;5053945;28;20025;-65
2023/03/17 00:38:48;;;;;;;7.82;3.92;;;4.10;54.40;;;;;;5053393;28;20032;-66
2023/03/17 00:41:15;;;;;;;10.52;4.40;;;4.00;54.50;;;;;;5053250;28;20488;-66
2023/03/17 00:43:41;;;;;;;9.13;3.58;;;4.00;54.70;;;;;;5054118;28;20098;-65
2023/03/17 00:46:37;;;;;;;7.25;3.85;;;3.90;54.90;;;;;;5053378;28;20204;-65
2023/03/17 00:49:23;;;;;;;8.05;4.20;;;3.90;55.00;;;;;;5044412;28;20033;-66
2023/03/17 00:51:49;;;;;;;5.45;3.65;;;3.80;55.20;;;;;;5053966;28;20025;-66
2023/03/17 00:54:16;;;;;;;5.15;3.83;;;3.80;55.20;;;;;;5053513;28;20112;-66
2023/03/17 00:56:43;;;;;;;9.00;4.88;;;3.80;55.30;;;;;;5053033;28;20035;-66
2023/03/17 00:59:31;;;;;;;9.88;4.35;;;3.80;55.40;;;;;;5053480;28;20029;-66
2023/03/17 01:01:57;;;;;;;8.68;3.95;;;3.70;55.40;;;;;;5053717;28;20531;-67
2023/03/17 01:04:23;;;;;;;7.75;4.22;;;3.70;55.40;;;;;;5053830;28;20033;-66
2023/03/17 01:06:50;;;;;;;9.07;4.60;;;3.80;55.40;;;;;;5053902;28;20476;-66
2023/03/17 01:09:18;;;;;;;8.57;3.75;;;3.70;55.60;;;;;;5053473;28;20108;-66
2023/03/17 01:11:43;;;;;;;6.65;4.03;;;3.70;55.80;;;;;;5054026;28;20426;-64
2023/03/17 01:14:11;;;;;;;7.80;3.60;;;3.70;55.80;;;;;;5053131;28;20111;-66
2023/03/17 01:16:37;;;;;;;6.70;4.05;;;3.60;55.90;;;;;;5053843;28;20037;-66
2023/03/17 01:19:03;;;;;;;7.45;3.65;;;3.60;56.10;;;;;;5053099;28;20108;-66
2023/03/17 01:21:30;;;;;;;6.95;4.13;;;3.60;56.20;;;;;;5053682;28;20021;-66
2023/03/17 01:23:55;;;;;;;9.55;4.53;;;3.50;56.30;;;;;;5053683;28;20042;-66
2023/03/17 01:26:21;;;;;;;8.55;4.25;;;3.40;56.50;;;;;;5052568;28;20025;-66
2023/03/17 01:28:47;;;;;;;10.70;4.90;;;3.40;56.60;;;;;;5053160;28;20029;-65
2023/03/17 01:31:12;;;;;;;7.95;3.78;;;3.40;56.70;;;;;;5052007;28;20033;-65
2023/03/17 01:33:38;;;;;;;12.05;4.55;;;3.40;56.90;;;;;;5053863;28;20029;-65
2023/03/17 01:36:04;;;;;;;9.52;4.20;;;3.30;57.00;;;;;;5052916;28;20582;-67
2023/03/17 01:38:30;;;;;;;5.75;4.07;;;3.40;57.20;;;;;;5053225;28;20104;-67
2023/03/17 01:40:56;;;;;;;9.07;3.60;;;3.30;57.20;;;;;;5053626;28;20029;-67
2023/03/17 01:43:26;;;;;;;10.00;4.07;;;3.30;57.40;;;;;;5052216;28;20397;-66
2023/03/17 01:46:23;;;;;;;8.73;4.30;;;3.30;57.40;;;;;;5053422;28;20487;-66
2023/03/17 01:48:55;;;;;;;7.75;3.80;;;3.30;57.60;;;;;;5053549;28;20090;-66
2023/03/17 01:51:43;;;;;;;7.22;3.92;;;3.30;57.70;;;;;;5052646;28;20124;-66
2023/03/17 01:54:13;;;;;;;5.93;3.63;;;3.30;57.80;;;;;;5052436;28;20310;-66
2023/03/17 01:56:42;;;;;;;9.40;3.75;;;3.30;57.90;;;;;;5053181;28;20037;-66
2023/03/17 01:59:12;;;;;;;7.15;4.25;;;3.30;57.90;;;;;;5052570;28;20025;-66
2023/03/17 02:01:42;;;;;;;6.05;3.60;;;3.30;58.00;;;;;;5052975;28;20044;-65
2023/03/17 02:04:10;;;;;;;6.38;3.42;;;3.20;58.10;;;;;;5051327;28;20033;-67
2023/03/17 02:06:37;;;;;;;7.40;3.63;;;3.20;58.10;;;;;;5053132;28;20060;-67
2023/03/17 02:09:03;;;;;;;9.52;4.10;;;3.20;58.30;;;;;;5052529;28;20137;-66
2023/03/17 02:11:29;;;;;;;10.27;4.03;;;3.20;58.50;;;;;;5052984;28;20086;-67
2023/03/17 02:13:55;;;;;;;6.95;3.78;;;3.20;58.50;;;;;;5052941;28;20064;-67
2023/03/17 02:16:21;;;;;;;6.05;3.78;;;3.30;58.50;;;;;;5052800;28;20059;-66
2023/03/17 02:18:47;;;;;;;6.10;4.15;;;3.20;58.70;;;;;;5052695;28;20029;-66
2023/03/17 02:21:44;;;;;;;7.00;4.07;;;3.20;58.90;;;;;;5052106;28;20025;-66
2023/03/17 02:24:21;;;;;;;13.65;4.55;;;3.20;59.10;;;;;;5051790;28;20076;-66
2023/03/17 02:26:48;;;;;;;6.97;4.10;;;3.20;59.30;;;;;;5052747;28;20052;-66
2023/03/17 02:29:15;;;;;;;9.60;4.38;;;3.10;59.60;;;;;;5052374;28;20453;-66
2023/03/17 02:31:42;;;;;;;7.20;4.40;;;3.20;59.60;;;;;;5052528;28;20033;-66
2023/03/17 02:34:08;;;;;;;12.10;4.13;;;3.20;59.70;;;;;;5052360;28;20052;-66
2023/03/17 02:36:34;;;;;;;7.47;4.00;;;3.20;59.80;;;;;;5052579;28;20478;-66
2023/03/17 02:39:00;;;;;;;9.63;4.28;;;3.20;59.90;;;;;;5051642;28;20057;-67
2023/03/17 02:41:26;;;;;;;8.07;4.22;;;3.20;60.20;;;;;;5052731;28;20580;-66
2023/03/17 02:43:52;;;;;;;7.43;3.92;;;3.10;60.60;;;;;;5052344;28;20150;-66
2023/03/17 02:46:18;;;;;;;7.80;4.20;;;3.10;60.80;;;;;;5052175;28;20021;-66
2023/03/17 02:48:45;;;;;;;7.03;4.15;;;3.20;61.00;;;;;;5052497;28;20025;-66
2023/03/17 02:51:12;;;;;;;10.93;4.43;;;3.20;61.00;;;;;;5051942;28;20033;-66
2023/03/17 02:53:38;;;;;;;7.97;4.22;;;3.10;61.30;;;;;;5052136;28;20457;-66
2023/03/17 02:56:04;;;;;;;11.95;4.72;;;3.10;61.90;;;;;;5051904;28;20071;-66
2023/03/17 02:58:30;;;;;;;8.30;4.35;;;3.10;62.00;;;;;;5051933;28;20505;-66
2023/03/17 03:00:56;;;;;;;10.32;4.97;;;3.10;62.30;;;;;;5052245;28;20086;-66
2023/03/17 03:03:22;;;;;;;10.40;4.30;;;3.10;62.40;;;;;;5051771;28;20055;-66
2023/03/17 03:05:47;;;;;;;12.43;4.72;;;3.10;62.60;;;;;;5052526;28;20029;-66
2023/03/17 03:08:15;;;;;;;10.38;4.72;;;3.10;62.90;;;;;;5051814;28;20450;-66
2023/03/17 03:10:41;;;;;;;7.22;4.57;;;3.10;62.90;;;;;;5051832;28;20028;-67
2023/03/17 03:13:07;;;;;;;7.45;4.15;;;3.00;63.00;;;;;;5051422;28;20048;-66
2023/03/17 03:15:32;;;;;;;12.90;5.10;;;3.00;63.20;;;;;;5052322;28;20108;-66
2023/03/17 03:17:58;;;;;;;11.63;4.65;;;3.00;63.30;;;;;;5052132;28;20029;-66
2023/03/17 03:20:24;;;;;;;6.90;4.97;;;3.00;63.10;;;;;;5051495;28;20021;-66
2023/03/17 03:22:49;;;;;;;6.78;4.63;;;3.00;63.20;;;;;;5051990;28;20041;-66
2023/03/17 03:25:15;;;;;;;7.50;4.40;;;3.00;63.20;;;;;;5051722;28;20036;-66
2023/03/17 03:27:41;;;;;;;9.32;4.55;;;3.00;63.10;;;;;;5052097;28;20025;-66
2023/03/17 03:30:07;;;;;;;8.55;4.00;;;3.00;63.10;;;;;;5051467;28;20031;-66
2023/03/17 03:32:33;;;;;;;9.40;4.53;;;3.00;63.00;;;;;;5052216;28;20067;-66
2023/03/17 03:34:59;;;;;;;7.85;4.45;;;2.90;62.80;;;;;;5052091;28;20463;-66
2023/03/17 03:37:24;;;;;;;9.20;4.25;;;2.90;62.70;;;;;;5051071;28;20350;-66
2023/03/17 03:39:50;;;;;;;7.70;4.40;;;2.90;62.60;;;;;;5052139;28;20052;-66
2023/03/17 03:42:16;;;;;;;10.52;4.47;;;2.90;62.50;;;;;;5050522;28;20493;-67
2023/03/17 03:44:42;;;;;;;7.88;4.53;;;2.90;62.40;;;;;;5051578;28;20032;-67
2023/03/17 03:47:08;;;;;;;9.18;4.40;;;2.90;62.40;;;;;;5051110;28;20412;-66
2023/03/17 03:49:34;;;;;;;8.90;4.60;;;2.90;62.20;;;;;;5051421;28;20039;-66
2023/03/17 03:52:00;;;;;;;9.82;4.15;;;2.80;62.20;;;;;;5055334;28;20025;-66
2023/03/17 03:54:25;;;;;;;10.13;4.68;;;2.90;62.20;;;;;;5055066;28;20029;-66
2023/03/17 03:56:51;;;;;;;7.18;4.60;;;2.80;62.30;;;;;;5054475;28;20113;-66
2023/03/17 03:59:17;;;;;;;10.43;4.65;;;2.80;62.30;;;;;;5054959;28;20426;-67
2023/03/17 04:01:43;;;;;;;11.52;5.20;;;2.80;62.20;;;;;;5055367;28;20056;-66
2023/03/17 04:04:08;;;;;;;8.15;4.88;;;2.80;62.10;;;;;;5054930;28;20069;-65
2023/03/17 04:06:34;;;;;;;11.13;5.20;;;2.80;62.20;;;;;;5055234;28;20420;-66
2023/03/17 04:09:00;;;;;;;10.80;5.28;;;2.90;62.20;;;;;;5055384;28;20072;-66
2023/03/17 04:11:26;;;;;;;12.07;4.93;;;2.90;62.20;;;;;;5054748;28;20192;-67
2023/03/17 04:13:51;;;;;;;10.40;5.47;;;2.80;62.20;;;;;;5055588;28;20036;-66
2023/03/17 04:16:17;;;;;;;8.00;5.18;;;2.80;62.40;;;;;;5054838;28;20032;-66
2023/03/17 04:18:43;;;;;;;9.20;4.93;;;2.80;62.50;;;;;;5054969;28;20098;-67
2023/03/17 04:21:09;;;;;;;9.13;5.65;;;2.80;62.50;;;;;;5053713;28;20041;-66
2023/03/17 04:23:35;;;;;;;11.90;5.30;;;2.70;62.50;;;;;;5055270;28;20039;-65
2023/03/17 04:26:01;;;;;;;9.18;5.63;;;2.70;62.70;;;;;;5056550;28;20071;-66
2023/03/17 04:28:26;;;;;;;10.23;5.32;;;2.70;62.60;;;;;;5066500;28;20035;-66
2023/03/17 04:30:52;;;;;;;10.15;4.70;;;2.60;62.80;;;;;;5054964;28;20029;-66
2023/03/17 04:33:19;;;;;;;9.93;5.40;;;2.60;62.90;;;;;;5054799;28;20029;-66
2023/03/17 04:35:45;;;;;;;8.43;4.90;;;2.60;63.00;;;;;;5054787;28;20134;-66
2023/03/17 04:38:12;;;;;;;9.15;5.25;;;2.60;63.10;;;;;;5054309;28;20107;-67
2023/03/17 04:40:38;;;;;;;13.73;5.70;;;2.60;63.10;;;;;;5054741;28;20480;-66
2023/03/17 04:43:03;;;;;;;11.07;5.10;;;2.60;63.00;;;;;;5054325;28;20124;-67
2023/03/17 04:45:29;;;;;;;7.68;5.03;;;2.60;63.20;;;;;;5054013;28;20163;-67
2023/03/17 04:47:55;;;;;;;9.45;5.43;;;2.60;63.30;;;;;;5054285;28;20024;-65
2023/03/17 04:50:21;;;;;;;7.85;4.68;;;2.50;63.40;;;;;;5054299;28;20029;-66
2023/03/17 04:52:46;;;;;;;10.57;5.22;;;2.50;63.70;;;;;;5054747;28;20103;-66
2023/03/17 04:55:12;;;;;;;8.95;5.07;;;2.50;63.80;;;;;;5054158;28;20032;-67
2023/03/17 04:57:38;;;;;;;11.25;5.38;;;2.50;63.90;;;;;;5054383;28;20024;-66
2023/03/17 05:00:06;;;;;;;8.68;5.20;;;2.40;64.00;;;;;;5054162;28;20020;-66
2023/03/17 05:02:31;;;;;;;11.93;5.80;;;2.40;64.00;;;;;;5052439;28;20032;-66
2023/03/17 05:04:57;;;;;;;11.93;6.95;;;2.40;64.00;;;;;;5054588;28;20082;-66
2023/03/17 05:07:23;;;;;;;11.15;5.20;;;2.40;64.30;;;;;;5054073;28;20460;-66
2023/03/17 05:09:48;;;;;;;8.52;4.72;;;2.40;64.50;;;;;;5054423;28;20462;-66
2023/03/17 05:12:14;;;;;;;10.35;5.22;;;2.40;64.50;;;;;;5053998;28;20035;-66
2023/03/17 05:14:40;;;;;;;8.48;5.05;;;2.30;64.70;;;;;;5054182;28;20036;-66
2023/03/17 05:17:06;;;;;;;10.55;5.10;;;2.40;64.70;;;;;;5053994;28;20413;-66
2023/03/17 05:19:31;;;;;;;21.10;5.18;;;2.40;64.60;;;;;;5053939;28;20030;-66
2023/03/17 05:21:57;;;;;;;10.27;5.68;;;2.50;64.50;;;;;;5054307;28;20433;-66
2023/03/17 05:24:23;;;;;;;10.98;5.32;;;2.50;64.30;;;;;;5053456;28;20465;-66
2023/03/17 05:26:49;;;;;;;12.25;5.22;;;2.50;64.40;;;;;;5054072;28;20029;-67
2023/03/17 05:29:14;;;;;;;11.38;5.38;;;2.50;64.30;;;;;;5053499;28;20166;-67
2023/03/17 05:31:40;;;;;;;12.23;5.35;;;2.60;64.20;;;;;;5053440;28;20488;-67
2023/03/17 05:34:06;;;;;;;12.02;6.65;;;2.60;64.40;;;;;;5053902;28;20423;-66
2023/03/17 05:36:32;;;;;;;10.02;5.95;;;2.60;64.10;;;;;;5053398;28;20389;-67
2023/03/17 05:38:58;;;;;;;8.52;5.40;;;2.60;64.30;;;;;;5053705;28;20375;-66
2023/03/17 05:41:24;;;;;;;10.57;5.90;;;2.60;64.40;;;;;;5053067;28;20055;-65
2023/03/17 05:43:49;;;;;;;11.30;5.63;;;2.60;64.40;;;;;;5053563;28;20057;-66
2023/03/17 05:46:15;;;;;;;12.30;6.10;;;2.60;64.60;;;;;;5053569;28;20108;-67
2023/03/17 05:48:41;;;;;;;11.73;6.30;;;2.70;64.50;;;;;;5053247;28;20107;-67
2023/03/17 05:51:07;;;;;;;12.52;5.70;;;2.70;64.40;;;;;;5053342;28;20064;-66
2023/03/17 05:53:33;;;;;;;11.95;6.30;;;2.70;64.30;;;;;;5052866;28;20028;-66
2023/03/17 05:55:59;;;;;;;12.27;5.72;;;2.80;64.10;;;;;;5053308;28;20032;-66
2023/03/17 05:58:25;;;;;;;12.98;6.60;;;2.90;64.00;;;;;;5053068;28;20421;-66
2023/03/17 06:00:50;;;;;;;13.63;5.88;;;3.00;63.60;;;;;;5053309;28;20028;-66
2023/03/17 06:03:16;;;;;;;10.95;5.72;;;3.00;63.40;;;;;;5052477;28;20045;-66
2023/03/17 06:05:42;;;;;;;12.00;5.93;;;3.10;63.30;;;;;;5052872;28;20033;-65
2023/03/17 06:08:08;;;;;;;10.93;6.32;;;3.10;63.20;;;;;;5053103;28;20029;-66
2023/03/17 06:10:34;;;;;;;10.15;5.63;;;3.20;63.10;;;;;;5052620;28;20100;-66
2023/03/17 06:13:00;;;;;;;11.73;5.95;;;3.30;62.90;;;;;;5052770;28;20167;-66
2023/03/17 06:15:26;;;;;;;13.30;5.93;;;3.40;62.50;;;;;;5052614;28;20025;-67
2023/03/17 06:17:52;;;;;;;9.85;5.63;;;3.50;62.10;;;;;;5052991;28;20036;-67
2023/03/17 06:20:18;;;;;;;10.70;6.15;;;3.50;62.00;;;;;;5052707;28;20024;-68
2023/03/17 06:22:44;;;;;;;10.93;5.38;;;3.70;61.80;;;;;;5052581;28;20154;-66
2023/03/17 06:25:11;;;;;;;9.52;5.28;;;3.80;61.00;;;;;;5052764;28;20104;-66
2023/03/17 06:27:37;;;;;;;10.90;5.40;;;3.90;60.20;;;;;;5051980;28;20044;-66
2023/03/17 06:30:05;;;;;;;7.20;4.78;;;4.00;60.10;;;;;;5052865;28;20025;-66
2023/03/17 06:32:31;;;;;;;9.00;5.25;;;4.10;59.40;;;;;;5052211;28;20091;-67
2023/03/17 06:34:57;;;;;;;10.25;4.78;;;4.20;58.90;;;;;;5052496;28;20104;-67
2023/03/17 06:37:23;;;;;;;14.75;5.47;;;4.30;58.40;;;;;;5051913;28;20115;-67
2023/03/17 06:39:49;;;;;;;15.45;5.25;;;4.40;58.30;;;;;;5052591;28;20036;-67
2023/03/17 06:42:14;;;;;;;11.80;4.53;;;4.50;58.00;;;;;;5052291;28;20025;-66
2023/03/17 06:44:40;;;;;;;10.38;5.18;;;4.50;57.50;;;;;;5051781;28;20033;-66
2023/03/17 06:47:06;;;;;;;8.65;5.07;;;4.60;57.60;;;;;;5052532;28;20040;-66
2023/03/17 06:49:32;;;;;;;7.93;5.10;;;4.70;57.40;;;;;;5052018;28;20025;-66
2023/03/17 06:51:58;;;;;;;10.23;4.45;;;4.80;57.20;;;;;;5052333;28;20378;-67
2023/03/17 06:54:24;;;;;;;7.35;4.47;;;4.90;56.70;;;;;;5051687;28;20029;-67
2023/03/17 06:56:53;;;;;;;9.82;4.30;;;5.00;56.30;;;;;;5052314;28;20021;-65
2023/03/17 06:59:20;;;;;;;10.70;3.88;;;5.10;55.80;;;;;;5052478;28;20405;-66
2023/03/17 07:01:47;;;;;;;10.13;4.13;;;5.20;55.40;;;;;;5052601;28;20468;-66
2023/03/17 07:04:13;;;;;;;9.27;4.10;;;5.30;55.10;;;;;;5052402;28;20068;-65
2023/03/17 07:06:39;;;;;;;6.60;4.05;;;5.40;53.80;;;;;;5051724;28;20411;-65
2023/03/17 07:09:06;;;;;;;15.05;4.78;;;5.60;53.50;;;;;;5052667;28;20040;-66
2023/03/17 07:11:32;;;;;;;12.70;4.63;;;5.60;53.00;;;;;;5050831;28;20025;-65
2023/03/17 07:13:57;;;;;;;7.28;3.95;;;5.80;52.90;;;;;;5052304;28;20051;-66
2023/03/17 07:16:23;;;;;;;11.85;4.40;;;5.90;52.80;;;;;;5052021;28;20025;-67
2023/03/17 07:18:49;;;;;;;9.73;4.13;;;6.10;52.40;;;;;;5052329;28;20407;-66
2023/03/17 07:21:15;;;;;;;14.23;4.45;;;6.20;52.00;;;;;;5052369;28;20040;-65
2023/03/17 07:23:41;;;;;;;7.15;4.28;;;6.50;51.10;;;;;;5051699;28;20041;-66
2023/03/17 07:26:06;;;;;;;8.82;4.35;;;6.70;50.40;;;;;;5053273;28;20117;-65
2023/03/17 07:28:32;;;;;;;9.85;4.75;;;7.00;50.00;;;;;;5055747;28;20033;-66
2023/03/17 07:30:59;;;;;;;10.23;4.43;;;7.40;49.50;;;;;;5055920;28;20080;-66
2023/03/17 07:33:25;;;;;;;8.00;4.80;;;7.80;48.60;;;;;;5055495;28;20032;-67
2023/03/17 07:35:51;;;;;;;12.27;3.90;;;8.20;47.50;;;;;;5055853;28;20028;-66
2023/03/17 07:38:17;;;;;;;8.02;4.40;;;8.50;46.60;;;;;;5055944;28;20071;-65
2023/03/17 07:40:46;;;;;;;13.32;4.72;;;8.60;45.80;;;;;;5055202;28;20025;-66
2023/03/17 07:43:12;;;;;;;10.95;4.47;;;8.80;45.70;;;;;;5055463;28;20501;-66
2023/03/17 07:45:38;;;;;;;16.38;4.63;;;9.00;45.20;;;;;;5054019;28;20036;-66
2023/03/17 07:48:05;;;;;;;13.35;4.57;;;9.20;44.50;;;;;;5055510;28;20412;-65
2023/03/17 07:50:32;;;;;;;16.30;4.40;;;9.50;43.70;;;;;;5055619;28;20025;-65
2023/03/17 07:52:58;;;;;;;10.07;4.13;;;9.70;43.20;;;;;;5055714;28;20075;-66
2023/03/17 07:55:24;;;;;;;12.82;4.10;;;10.10;42.90;;;;;;5055681;28;20025;-66
2023/03/17 07:57:50;;;;;;;10.77;4.30;;;10.80;41.40;;;;;;5054899;28;20131;-66
2023/03/17 08:00:16;;;;;;;9.18;4.20;;;11.60;40.00;;;;;;5055358;28;20048;-67
2023/03/17 08:02:42;;;;;;;20.05;4.53;;;12.20;38.80;;;;;;5055072;28;20036;-65
2023/03/17 08:05:09;;;;;;;5.93;3.80;;;12.50;37.90;;;;;;5055568;28;20381;-66
2023/03/17 08:07:36;;;;;;;14.82;4.18;;;12.80;37.20;;;;;;5055009;28;20025;-66
2023/03/17 08:10:04;;;;;;;11.88;3.72;;;12.90;36.80;;;;;;5055333;28;20060;-66
2023/03/17 08:12:29;;;;;;;9.93;4.38;;;12.00;37.10;;;;;;5054767;28;20025;-67
2023/03/17 08:14:55;;;;;;;10.45;3.95;;;12.00;37.80;;;;;;5053527;28;20024;-66
2023/03/17 08:17:25;;;;;;;9.15;4.20;;;12.50;37.40;;;;;;5054786;28;20028;-66
2023/03/17 08:19:54;;;;;;;7.72;4.28;;;12.40;36.90;;;;;;5054697;28;20083;-66
2023/03/17 08:22:19;;;;;;;12.02;4.00;;;12.60;38.10;;;;;;5054614;28;20021;-65
2023/03/17 08:24:45;;;;;;;5.95;3.97;;;12.50;36.80;;;;;;5054631;28;20041;-66
2023/03/17 08:27:12;;;;;;;8.95;4.28;;;12.60;36.70;;;;;;5054720;28;20025;-66
2023/03/17 08:29:38;;;;;;;8.27;5.10;;;12.60;37.00;;;;;;5054289;28;20436;-66
2023/03/17 08:32:04;;;;;;;7.20;4.38;;;12.60;36.60;;;;;;5055098;28;20559;-65
2023/03/17 08:34:30;;;;;;;6.15;3.90;;;11.80;37.10;;;;;;5054605;28;20033;-67
2023/03/17 08:36:56;;;;;;;10.40;4.70;;;11.50;38.40;;;;;;5054267;28;20021;-66
2023/03/17 08:39:22;;;;;;;5.93;4.05;;;11.40;38.60;;;;;;5055177;28;20515;-66
2023/03/17 08:41:48;;;;;;;9.00;4.35;;;11.40;38.80;;;;;;5054461;28;20440;-66
2023/03/17 08:44:14;;;;;;;12.50;4.75;;;11.20;39.00;;;;;;5054218;28;20140;-65
2023/03/17 08:46:40;;;;;;;13.07;4.82;;;11.00;39.50;;;;;;5054327;28;20362;-66
2023/03/17 08:49:06;;;;;;;10.63;4.43;;;10.80;40.40;;;;;;5054577;28;20036;-65
2023/03/17 08:51:35;;;;;;;8.77;4.55;;;10.80;40.40;;;;;;5052172;28;20029;-66
2023/03/17 08:54:02;;;;;;;6.93;4.15;;;10.50;41.00;;;;;;5054142;28;20033;-65
2023/03/17 08:56:29;;;;;;;7.55;4.43;;;10.60;41.30;;;;;;5054465;28;20029;-65
2023/03/17 08:58:55;;;;;;;7.55;4.38;;;10.50;41.10;;;;;;5053707;28;20025;-66
2023/03/17 09:01:23;;;;;;;7.43;4.07;;;10.40;41.40;;;;;;5054369;28;20048;-65
2023/03/17 09:03:49;;;;;;;6.20;4.35;;;10.30;41.80;;;;;;5053789;28;20040;-65
2023/03/17 09:06:15;;;;;;;7.55;4.00;;;10.20;41.80;;;;;;5054471;28;20033;-66
2023/03/17 09:08:46;;;;;;;7.95;4.22;;;10.10;41.90;;;;;;5053917;28;20027;-66
2023/03/17 09:11:17;;;;;;;9.10;5.00;;;10.00;42.20;;;;;;5054501;28;20033;-66
2023/03/17 09:13:45;;;;;;;;;;;10.00;42.30;;;;;;5053817;28;20040;-66
2023/03/17 09:16:11;;;;;;;8.73;5.00;;;9.90;42.90;;;;;;5054340;28;19911;-66
2023/03/17 09:18:37;;;;;;;13.25;5.68;;;9.90;42.80;;;;;;5054112;28;20060;-67
2023/03/17 09:21:03;;;;;;;11.80;4.45;;;9.90;42.70;;;;;;5054038;28;20058;-66
2023/03/17 09:23:30;;;;;;;13.23;4.75;;;10.00;42.50;;;;;;5053698;28;20044;-66
2023/03/17 09:25:56;;;;;;;11.18;5.05;;;10.00;42.80;;;;;;5052826;28;20029;-66
2023/03/17 09:28:22;;;;;;;11.52;4.85;;;9.90;42.70;;;;;;5053960;28;20512;-66
2023/03/17 09:30:49;;;;;;;9.20;4.50;;;9.80;42.70;;;;;;5052839;28;20025;-66
2023/03/17 09:33:15;;;;;;;10.02;4.55;;;9.90;43.00;;;;;;5054636;28;20043;-66
2023/03/17 09:35:41;;;;;;;11.45;4.25;;;9.80;42.40;;;;;;5055906;28;20025;-66
2023/03/17 09:38:07;;;;;;;8.80;4.25;;;9.80;42.90;;;;;;5057294;28;20465;-66
2023/03/17 09:40:45;;;;;;;8.05;4.60;;;9.90;42.80;;;;;;5056932;28;20411;-66
2023/03/17 09:43:30;;;;;;;11.93;4.35;;;9.90;42.90;;;;;;5055357;28;20048;-66
2023/03/17 09:46:07;;;;;;;12.23;4.88;;;10.00;42.50;;;;;;5051489;28;20033;-67
2023/03/17 09:48:59;;;;;;;9.38;4.47;;;9.90;42.50;;;;;;5052752;28;20044;-67
2023/03/17 09:51:25;;;;;;;14.82;4.97;;;10.00;42.30;;;;;;5053308;28;20036;-68
2023/03/17 09:54:02;;;;;;;9.00;3.92;;;10.00;41.80;;;;;;5052704;28;20040;-67
2023/03/17 09:56:32;;;;;;;9.38;4.65;;;10.10;41.70;;;;;;5051905;28;20120;-67
2023/03/17 09:59:17;;;;;;;8.15;4.07;;;10.10;41.40;;;;;;5052771;28;20032;-67
2023/03/17 10:01:42;;;;;;;12.35;4.68;;;10.00;41.10;;;;;;5052712;28;20025;-67
2023/03/17 10:04:10;;;;;;;7.25;4.03;;;10.00;41.80;;;;;;5053147;28;20036;-67
2023/03/17 10:06:42;;;;;;;6.72;3.75;;;10.20;41.30;;;;;;5052816;28;20086;-68
2023/03/17 10:09:30;;;;;;;7.18;3.85;;;10.20;40.90;;;;;;5052125;28;20025;-67
2023/03/17 10:12:23;;;;;;;9.85;4.85;;;10.20;40.90;;;;;;5052630;28;20348;-66
2023/03/17 10:15:03;;;;;;;6.95;4.20;;;10.30;40.90;;;;;;5051278;28;20039;-67
2023/03/17 10:17:39;;;;;;;9.90;4.20;;;10.50;40.90;;;;;;5052836;28;20029;-66
2023/03/17 10:20:07;;;;;;;7.75;4.18;;;10.70;40.50;;;;;;5052819;28;20147;-66
2023/03/17 10:23:10;;;;;;;6.28;4.03;;;10.80;39.80;;;;;;5052894;28;20052;-66
2023/03/17 10:25:37;;;;;;;9.48;4.70;;;10.90;40.00;;;;;;5029939;28;20478;-67
2023/03/17 10:28:07;;;;;;;7.05;4.05;;;11.10;40.00;;;;;;5052197;28;20389;-66
2023/03/17 10:30:34;;;;;;;8.97;4.60;;;11.10;39.20;;;;;;5052851;28;20036;-66
2023/03/17 10:33:02;;;;;;;11.00;3.95;;;11.00;39.20;;;;;;5052218;28;20261;-67
2023/03/17 10:35:29;;;;;;;7.70;3.92;;;11.10;39.20;;;;;;5052749;28;20099;-67
2023/03/17 10:37:55;;;;;;;9.50;4.13;;;11.10;38.90;;;;;;5052020;28;20037;-67
2023/03/17 10:40:24;;;;;;;12.18;4.30;;;11.10;38.90;;;;;;5052271;28;20506;-67
2023/03/17 10:42:59;;;;;;;6.93;3.92;;;11.20;38.80;;;;;;5051799;28;20476;-68
2023/03/17 10:45:31;;;;;;;8.68;3.92;;;11.30;38.10;;;;;;5052658;28;20029;-67
2023/03/17 10:47:58;;;;;;;5.35;3.42;;;11.50;36.90;;;;;;5052046;28;20111;-68
2023/03/17 10:50:34;;;;;;;7.95;3.90;;;11.50;36.90;;;;;;5052584;28;20374;-67
2023/03/17 10:53:18;;;;;;;6.40;3.88;;;11.70;36.70;;;;;;5051806;28;20413;-68
2023/03/17 10:55:49;;;;;;;5.78;3.50;;;11.70;36.60;;;;;;5052045;28;20025;-68
2023/03/17 10:58:30;;;;;;;;;;;11.80;36.50;;;;;;5052943;28;20029;-68
2023/03/17 11:01:25;;;;;;;6.83;3.27;;;11.90;35.00;;;;;;5055294;28;20161;-67
2023/03/17 11:03:51;;;;;;;5.40;2.85;;;11.90;34.30;;;;;;5055925;28;20384;-68
2023/03/17 11:06:19;;;;;;;4.78;2.63;;;12.00;33.90;;;;;;5056092;28;20033;-68
2023/03/17 11:08:53;;;;;;;7.65;3.42;;;12.10;34.30;;;;;;5055687;28;20033;-68
2023/03/17 11:11:33;;;;;;;8.23;3.40;;;12.20;33.80;;;;;;5056517;28;20120;-69
2023/03/17 11:14:10;;;;;;;7.13;3.35;;;12.20;33.70;;;;;;5054699;28;20366;-68
2023/03/17 11:17:09;;;;;;;5.78;3.03;;;12.30;33.70;;;;;;5056173;28;20025;-68
2023/03/17 11:19:52;;;;;;;7.22;3.70;;;12.30;33.90;;;;;;5050970;28;20079;-67
2023/03/17 11:22:34;;;;;;;9.20;3.85;;;12.40;33.50;;;;;;5056442;28;20100;-67
2023/03/17 11:25:22;;;;;;;6.03;3.00;;;12.30;33.50;;;;;;5054183;28;20024;-67
2023/03/17 11:28:15;;;;;;;6.32;2.95;;;12.30;33.50;;;;;;5054738;28;20037;-67
2023/03/17 11:31:01;;;;;;;7.10;3.40;;;12.40;33.10;;;;;;5055561;28;20025;-68
2023/03/17 11:33:48;;;;;;;7.85;3.10;;;12.40;32.50;;;;;;5055031;28;20057;-67
2023/03/17 11:36:23;;;;;;;8.50;3.30;;;12.40;33.20;;;;;;5055874;28;20021;-67
2023/03/17 11:39:30;;;;;;;5.18;2.90;;;12.40;33.70;;;;;;5055642;28;20117;-67
2023/03/17 11:42:18;;;;;;;8.80;3.45;;;12.40;33.80;;;;;;5053506;28;20120;-67
2023/03/17 11:45:08;;;;;;;5.93;3.22;;;12.50;33.20;;;;;;5055766;28;20121;-67
2023/03/17 11:47:41;;;;;;;7.45;3.63;;;12.50;33.00;;;;;;5055807;28;20029;-67
2023/03/17 11:50:10;;;;;;;5.97;3.20;;;12.60;33.10;;;;;;5055690;28;20021;-67
2023/03/17 11:53:01;;;;;;;6.68;3.35;;;12.60;32.90;;;;;;5055514;28;20024;-67
2023/03/17 11:55:37;;;;;;;;;;;12.60;32.70;;;;;;5056051;28;20056;-67
2023/03/17 11:58:12;;;;;;;7.35;3.00;;;12.60;33.10;;;;;;5055101;28;20017;-67
2023/03/17 12:00:49;;;;;;;5.65;3.28;;;12.70;33.50;;;;;;5055378;28;20166;-67
2023/03/17 12:03:31;;;;;;;7.78;3.53;;;12.80;32.60;;;;;;5055587;28;20029;-67
2023/03/17 12:06:04;;;;;;;5.57;3.00;;;12.70;32.40;;;;;;5054993;28;20029;-66
2023/03/17 12:08:41;;;;;;;5.50;2.70;;;12.70;32.80;;;;;;5055491;28;20025;-68
2023/03/17 12:11:14;;;;;;;7.28;3.13;;;12.90;32.80;;;;;;5054563;28;20037;-67
2023/03/17 12:13:45;;;;;;;4.63;2.70;;;12.80;32.60;;;;;;5055291;28;20025;-67
2023/03/17 12:16:24;;;;;;;8.32;3.28;;;12.90;33.00;;;;;;5055338;28;20479;-67
2023/03/17 12:18:53;;;;;;;9.25;3.30;;;12.90;32.20;;;;;;5054799;28;20029;-67
2023/03/17 12:21:53;;;;;;;7.47;3.40;;;12.80;32.10;;;;;;5055194;28;20032;-67
2023/03/17 12:24:24;;;;;;;6.60;3.13;;;12.80;32.40;;;;;;5055193;28;20448;-67
2023/03/17 12:26:53;;;;;;;6.97;2.80;;;12.70;32.30;;;;;;5054024;28;20020;-67
2023/03/17 12:29:42;;;;;;;5.40;3.33;;;12.80;32.60;;;;;;5053652;28;20104;-67
2023/03/17 12:32:17;;;;;;;8.65;2.88;;;12.80;32.60;;;;;;5054694;28;20021;-66
2023/03/17 12:34:49;;;;;;;7.35;2.90;;;12.90;32.30;;;;;;5054978;28;20082;-67
2023/03/17 12:37:16;;;;;;;5.97;2.90;;;12.70;32.50;;;;;;5054780;28;20033;-66
2023/03/17 12:40:00;;;;;;;7.43;2.88;;;12.70;32.50;;;;;;5054818;28;20061;-66
2023/03/17 12:42:35;;;;;;;7.50;2.70;;;12.50;32.80;;;;;;5054286;28;20071;-66
2023/03/17 12:45:19;;;;;;;6.38;3.33;;;12.60;32.70;;;;;;5053922;28;20033;-67
2023/03/17 12:47:54;;;;;;;5.28;2.85;;;12.50;32.70;;;;;;5054229;28;20357;-66
2023/03/17 12:50:47;;;;;;;8.18;3.10;;;12.50;32.80;;;;;;5055023;28;20112;-67
2023/03/17 12:53:28;;;;;;;7.55;3.15;;;12.40;32.40;;;;;;5055342;28;20033;-68
2023/03/17 12:55:57;;;;;;;7.68;3.75;;;12.40;32.60;;;;;;5054481;28;20029;-67
2023/03/17 12:58:42;;;;;;;6.55;3.58;;;12.40;32.00;;;;;;5054952;28;20029;-67
2023/03/17 13:01:39;;;;;;;13.13;3.22;;;12.30;32.30;;;;;;5055059;28;20033;-67
2023/03/17 13:04:22;;;;;;;6.75;2.95;;;12.30;32.20;;;;;;5055206;28;20048;-67